Flicksville, Pennsylvania
Current Conditions -  °F | °C
As of 11:51 AM on Thursday 23 Oct 2014 (Local Time) from KABE Reporting Station
Overcast Overcast  
Wind Chill: 52°   Ceiling: 4700
Heat Index: 52°   Visibility: 10mi
Dew Point: 42°   Wind: 22mph
Humidity: 69%   Direction: 320°NW
Pressure: 29.8"   Gusts: 29mph
Location:  40.84°N, 75.2°W
Report Text: KABE 231551Z 32019G25KT 10SM BKN047 OVC055 11/06 A2980 RMK AO2 SLP090 T01110056
Loading
Personal Weather Stations






























Interactive Weather Map
Tropical Storm Tracking
New forecast layout! Learn more

10-Day Weather Forecast

Advertisements
Track Severe Weather on mobile